createdAt,value
2022-10-31T00:01:50.885Z,10.38
2022-10-31T00:07:00.426Z,14.68
2022-10-31T00:11:59.433Z,6.15
2022-10-31T00:17:01.135Z,6.50
2022-10-31T00:22:00.180Z,10.85
2022-10-31T00:27:02.067Z,8.02
2022-10-31T00:32:00.883Z,6.45
2022-10-31T00:37:03.080Z,6.43
2022-10-31T00:42:01.548Z,8.88
2022-10-31T00:47:02.837Z,6.60
2022-10-31T00:52:05.118Z,6.75
2022-10-31T00:57:04.798Z,6.45
2022-10-31T01:02:06.267Z,7.10
2022-10-31T01:07:04.098Z,8.00
2022-10-31T01:12:05.093Z,7.50
2022-10-31T01:17:06.631Z,8.88
2022-10-31T01:22:07.884Z,8.90
2022-10-31T01:27:10.213Z,9.25
2022-10-31T01:32:10.595Z,7.22
2022-10-31T01:37:13.655Z,9.55
2022-10-31T01:42:20.525Z,10.07
2022-10-31T01:47:36.205Z,13.05
2022-10-31T01:52:46.646Z,8.40
2022-10-31T01:57:46.917Z,12.45
2022-10-31T02:02:47.359Z,9.20
2022-10-31T02:07:54.890Z,10.23
2022-10-31T02:13:06.308Z,7.25
2022-10-31T02:18:09.739Z,8.50
2022-10-31T02:23:11.901Z,12.75
2022-10-31T02:28:29.139Z,9.85
2022-10-31T02:33:40.034Z,8.10
2022-10-31T02:38:57.878Z,9.88
2022-10-31T02:44:27.804Z,11.55
2022-10-31T02:49:46.910Z,11.50
2022-10-31T02:54:48.318Z,11.52
2022-10-31T02:59:50.185Z,13.13
2022-10-31T03:05:02.216Z,8.93
2022-10-31T03:10:19.529Z,11.18
2022-10-31T03:15:44.168Z,15.65
2022-10-31T03:20:51.655Z,8.80
2022-10-31T03:25:54.985Z,11.57
2022-10-31T03:31:04.784Z,10.32
2022-10-31T03:36:16.112Z,13.55
2022-10-31T03:52:55.203Z,12.05
2022-10-31T03:58:06.848Z,12.82
2022-10-31T04:03:11.933Z,11.27
2022-10-31T04:08:17.680Z,14.50
2022-10-31T04:13:23.317Z,11.05
2022-10-31T04:18:35.977Z,14.32
2022-10-31T04:24:06.507Z,9.48
2022-10-31T04:34:11.992Z,10.02
2022-10-31T04:39:27.390Z,18.08
2022-10-31T04:51:17.505Z,12.63
2022-10-31T04:56:16.910Z,21.88
2022-10-31T05:01:20.142Z,14.65
2022-10-31T05:06:20.294Z,14.43
2022-10-31T05:11:19.025Z,11.48
2022-10-31T05:16:20.366Z,11.82
2022-10-31T05:21:54.778Z,17.17
2022-10-31T05:26:56.017Z,14.77
2022-10-31T05:31:57.794Z,23.00
2022-10-31T05:37:32.907Z,16.27
2022-10-31T05:42:33.460Z,23.33
2022-10-31T05:47:34.182Z,17.83
2022-10-31T05:52:59.947Z,19.10
2022-10-31T05:58:07.144Z,22.23
2022-10-31T06:08:29.521Z,29.40
2022-10-31T06:13:41.665Z,15.17
2022-10-31T06:18:52.370Z,21.45
2022-10-31T06:23:51.828Z,20.08
2022-10-31T06:29:08.718Z,16.55
2022-10-31T06:34:39.056Z,17.17
2022-10-31T06:39:39.839Z,14.60
2022-10-31T06:44:40.242Z,18.17
2022-10-31T06:49:59.951Z,15.30
2022-10-31T06:55:02.586Z,17.20
2022-10-31T07:00:10.462Z,23.42
2022-10-31T07:05:19.909Z,17.40
2022-10-31T07:20:43.427Z,18.20
2022-10-31T07:25:46.296Z,43.30
2022-10-31T07:36:36.886Z,27.05
2022-10-31T07:41:36.457Z,22.55
2022-10-31T07:46:34.494Z,23.38
2022-10-31T07:51:54.187Z,20.85
2022-10-31T07:57:16.088Z,23.17
2022-10-31T08:07:53.968Z,15.40
2022-10-31T08:13:14.108Z,23.92
2022-10-31T08:18:19.962Z,44.83
2022-10-31T08:24:11.305Z,22.02
2022-10-31T08:30:12.058Z,25.90
2022-10-31T08:40:54.801Z,27.98
2022-10-31T08:46:14.396Z,17.23
2022-10-31T08:51:26.233Z,24.67
2022-10-31T08:56:29.498Z,21.33
2022-10-31T09:01:39.341Z,18.27
2022-10-31T09:06:50.418Z,20.83
2022-10-31T09:12:07.249Z,15.43
2022-10-31T09:17:24.194Z,33.97
2022-10-31T09:23:21.188Z,27.15
2022-10-31T09:28:49.104Z,20.95
2022-10-31T09:33:52.627Z,19.45
2022-10-31T09:39:09.543Z,17.33
2022-10-31T09:44:44.449Z,19.92
